sensor_id;sensor_type;location;lat;lon;timestamp;temperature;humidity
5210;DHT22;2624;48.048;11.706;2024-01-27T00:00:56;5.30;99.90
5210;DHT22;2624;48.048;11.706;2024-01-27T00:05:59;5.20;99.90
5210;DHT22;2624;48.048;11.706;2024-01-27T00:11:01;5.20;99.90
5210;DHT22;2624;48.048;11.706;2024-01-27T00:16:03;4.90;99.90
5210;DHT22;2624;48.048;11.706;2024-01-27T00:21:07;4.60;99.90
5210;DHT22;2624;48.048;11.706;2024-01-27T00:26:09;5.00;99.90
5210;DHT22;2624;48.048;11.706;2024-01-27T00:31:11;5.10;99.90
5210;DHT22;2624;48.048;11.706;2024-01-27T00:36:14;5.10;99.90
5210;DHT22;2624;48.048;11.706;2024-01-27T00:41:17;5.30;99.90
5210;DHT22;2624;48.048;11.706;2024-01-27T00:46:19;5.10;99.90
5210;DHT22;2624;48.048;11.706;2024-01-27T00:51:22;4.80;99.90
5210;DHT22;2624;48.048;11.706;2024-01-27T00:56:23;4.70;99.90
5210;DHT22;2624;48.048;11.706;2024-01-27T01:01:25;4.90;99.90
5210;DHT22;2624;48.048;11.706;2024-01-27T01:06:28;4.70;99.90
5210;DHT22;2624;48.048;11.706;2024-01-27T01:11:30;4.60;99.90
5210;DHT22;2624;48.048;11.706;2024-01-27T01:16:32;4.10;99.90
5210;DHT22;2624;48.048;11.706;2024-01-27T01:21:35;4.50;99.90
5210;DHT22;2624;48.048;11.706;2024-01-27T01:26:37;4.50;99.90
5210;DHT22;2624;48.048;11.706;2024-01-27T01:31:41;4.40;99.90
5210;DHT22;2624;48.048;11.706;2024-01-27T01:36:44;4.10;99.90
5210;DHT22;2624;48.048;11.706;2024-01-27T01:41:46;4.40;99.90
5210;DHT22;2624;48.048;11.706;2024-01-27T01:46:48;4.50;99.90
5210;DHT22;2624;48.048;11.706;2024-01-27T01:51:51;4.40;99.90
5210;DHT22;2624;48.048;11.706;2024-01-27T01:56:53;4.30;99.90
5210;DHT22;2624;48.048;11.706;2024-01-27T02:01:55;4.80;99.90
5210;DHT22;2624;48.048;11.706;2024-01-27T02:06:58;4.40;99.90
5210;DHT22;2624;48.048;11.706;2024-01-27T02:12:00;4.60;99.90
5210;DHT22;2624;48.048;11.706;2024-01-27T02:17:02;4.30;99.90
5210;DHT22;2624;48.048;11.706;2024-01-27T02:22:06;3.80;99.90
5210;DHT22;2624;48.048;11.706;2024-01-27T02:27:09;4.00;99.90
5210;DHT22;2624;48.048;11.706;2024-01-27T02:32:11;4.60;99.90
5210;DHT22;2624;48.048;11.706;2024-01-27T02:37:12;4.60;99.90
5210;DHT22;2624;48.048;11.706;2024-01-27T02:42:15;4.20;99.90
5210;DHT22;2624;48.048;11.706;2024-01-27T02:47:17;4.40;99.90
5210;DHT22;2624;48.048;11.706;2024-01-27T02:52:19;4.40;99.90
5210;DHT22;2624;48.048;11.706;2024-01-27T02:57:22;4.50;99.90
5210;DHT22;2624;48.048;11.706;2024-01-27T03:02:24;4.50;99.90
5210;DHT22;2624;48.048;11.706;2024-01-27T03:07:26;4.60;99.90
5210;DHT22;2624;48.048;11.706;2024-01-27T03:12:29;4.30;99.90
5210;DHT22;2624;48.048;11.706;2024-01-27T03:17:30;4.20;99.90
5210;DHT22;2624;48.048;11.706;2024-01-27T03:22:32;4.30;99.90
5210;DHT22;2624;48.048;11.706;2024-01-27T03:27:35;3.30;99.90
5210;DHT22;2624;48.048;11.706;2024-01-27T03:32:37;3.70;99.90
5210;DHT22;2624;48.048;11.706;2024-01-27T03:37:39;4.00;99.90
5210;DHT22;2624;48.048;11.706;2024-01-27T03:42:42;4.20;99.90
5210;DHT22;2624;48.048;11.706;2024-01-27T03:47:44;4.30;99.90
5210;DHT22;2624;48.048;11.706;2024-01-27T03:52:46;4.20;99.90
5210;DHT22;2624;48.048;11.706;2024-01-27T03:57:49;4.10;99.90
5210;DHT22;2624;48.048;11.706;2024-01-27T04:02:50;4.10;99.90
5210;DHT22;2624;48.048;11.706;2024-01-27T04:07:52;4.00;99.90
5210;DHT22;2624;48.048;11.706;2024-01-27T04:12:55;3.90;99.90
5210;DHT22;2624;48.048;11.706;2024-01-27T04:17:57;3.80;99.90
5210;DHT22;2624;48.048;11.706;2024-01-27T04:23:00;2.80;99.90
5210;DHT22;2624;48.048;11.706;2024-01-27T04:28:04;3.50;99.90
5210;DHT22;2624;48.048;11.706;2024-01-27T04:33:06;3.90;99.90
5210;DHT22;2624;48.048;11.706;2024-01-27T04:38:08;4.00;99.90
5210;DHT22;2624;48.048;11.706;2024-01-27T04:43:14;4.00;99.90
5210;DHT22;2624;48.048;11.706;2024-01-27T04:48:17;3.80;99.90
5210;DHT22;2624;48.048;11.706;2024-01-27T04:53:18;3.40;99.90
5210;DHT22;2624;48.048;11.706;2024-01-27T04:58:21;3.80;99.90
5210;DHT22;2624;48.048;11.706;2024-01-27T05:03:23;3.70;99.90
5210;DHT22;2624;48.048;11.706;2024-01-27T05:08:25;3.70;99.90
5210;DHT22;2624;48.048;11.706;2024-01-27T05:13:28;2.30;99.90
5210;DHT22;2624;48.048;11.706;2024-01-27T05:18:30;2.50;99.90
5210;DHT22;2624;48.048;11.706;2024-01-27T05:23:32;3.30;99.90
5210;DHT22;2624;48.048;11.706;2024-01-27T05:28:35;3.50;99.90
5210;DHT22;2624;48.048;11.706;2024-01-27T05:33:37;3.00;99.90
5210;DHT22;2624;48.048;11.706;2024-01-27T05:38:39;2.50;99.90
5210;DHT22;2624;48.048;11.706;2024-01-27T05:43:42;2.90;99.90
5210;DHT22;2624;48.048;11.706;2024-01-27T05:48:44;3.00;99.90
5210;DHT22;2624;48.048;11.706;2024-01-27T05:53:46;2.70;99.90
5210;DHT22;2624;48.048;11.706;2024-01-27T05:58:49;2.80;99.90
5210;DHT22;2624;48.048;11.706;2024-01-27T06:03:51;2.80;99.90
5210;DHT22;2624;48.048;11.706;2024-01-27T06:08:53;2.90;99.90
5210;DHT22;2624;48.048;11.706;2024-01-27T06:13:56;3.00;99.90
5210;DHT22;2624;48.048;11.706;2024-01-27T06:18:59;2.60;99.90
5210;DHT22;2624;48.048;11.706;2024-01-27T06:24:01;2.60;99.90
5210;DHT22;2624;48.048;11.706;2024-01-27T06:29:04;2.70;99.90
5210;DHT22;2624;48.048;11.706;2024-01-27T06:34:06;2.80;99.90
5210;DHT22;2624;48.048;11.706;2024-01-27T06:39:07;2.80;99.90
5210;DHT22;2624;48.048;11.706;2024-01-27T06:44:11;2.30;99.90
5210;DHT22;2624;48.048;11.706;2024-01-27T06:49:13;2.60;99.90
5210;DHT22;2624;48.048;11.706;2024-01-27T06:54:15;2.00;99.90
5210;DHT22;2624;48.048;11.706;2024-01-27T06:59:18;1.60;99.90
5210;DHT22;2624;48.048;11.706;2024-01-27T07:04:20;1.30;99.90
5210;DHT22;2624;48.048;11.706;2024-01-27T07:09:21;1.40;99.90
5210;DHT22;2624;48.048;11.706;2024-01-27T07:14:24;1.40;99.90
5210;DHT22;2624;48.048;11.706;2024-01-27T07:19:26;1.20;99.90
5210;DHT22;2624;48.048;11.706;2024-01-27T07:24:28;1.50;99.90
5210;DHT22;2624;48.048;11.706;2024-01-27T07:29:31;2.10;99.90
5210;DHT22;2624;48.048;11.706;2024-01-27T07:34:33;1.90;99.90
5210;DHT22;2624;48.048;11.706;2024-01-27T07:39:35;2.20;99.90
5210;DHT22;2624;48.048;11.706;2024-01-27T07:44:39;2.40;99.90
5210;DHT22;2624;48.048;11.706;2024-01-27T07:49:41;2.40;99.90
5210;DHT22;2624;48.048;11.706;2024-01-27T07:54:42;2.00;99.90
5210;DHT22;2624;48.048;11.706;2024-01-27T07:59:45;1.90;99.90
5210;DHT22;2624;48.048;11.706;2024-01-27T08:04:47;2.20;99.90
5210;DHT22;2624;48.048;11.706;2024-01-27T08:09:49;2.60;99.90
5210;DHT22;2624;48.048;11.706;2024-01-27T08:14:52;2.50;99.90
5210;DHT22;2624;48.048;11.706;2024-01-27T08:19:55;2.60;99.90
5210;DHT22;2624;48.048;11.706;2024-01-27T08:24:57;2.70;99.90
5210;DHT22;2624;48.048;11.706;2024-01-27T08:30:00;2.60;99.90
5210;DHT22;2624;48.048;11.706;2024-01-27T08:35:02;2.70;99.90
5210;DHT22;2624;48.048;11.706;2024-01-27T08:40:05;2.60;99.90
5210;DHT22;2624;48.048;11.706;2024-01-27T08:45:09;2.70;99.90
5210;DHT22;2624;48.048;11.706;2024-01-27T08:50:10;2.60;99.90
5210;DHT22;2624;48.048;11.706;2024-01-27T08:55:12;2.50;99.90
5210;DHT22;2624;48.048;11.706;2024-01-27T09:00:16;2.70;99.90
5210;DHT22;2624;48.048;11.706;2024-01-27T09:05:18;2.70;99.90
5210;DHT22;2624;48.048;11.706;2024-01-27T09:10:20;2.60;99.90
5210;DHT22;2624;48.048;11.706;2024-01-27T09:15:23;2.80;99.90
5210;DHT22;2624;48.048;11.706;2024-01-27T09:20:25;2.80;99.90
5210;DHT22;2624;48.048;11.706;2024-01-27T09:25:27;2.80;99.90
5210;DHT22;2624;48.048;11.706;2024-01-27T09:30:31;3.00;99.90
5210;DHT22;2624;48.048;11.706;2024-01-27T09:35:33;3.20;99.90
5210;DHT22;2624;48.048;11.706;2024-01-27T09:40:35;3.30;99.90
5210;DHT22;2624;48.048;11.706;2024-01-27T09:45:38;3.40;99.90
5210;DHT22;2624;48.048;11.706;2024-01-27T09:50:41;3.50;99.90
5210;DHT22;2624;48.048;11.706;2024-01-27T09:55:43;3.70;99.90
5210;DHT22;2624;48.048;11.706;2024-01-27T10:00:47;3.70;99.90
5210;DHT22;2624;48.048;11.706;2024-01-27T10:05:49;3.60;99.90
5210;DHT22;2624;48.048;11.706;2024-01-27T10:10:54;3.80;99.90
5210;DHT22;2624;48.048;11.706;2024-01-27T10:16:01;3.80;99.90
5210;DHT22;2624;48.048;11.706;2024-01-27T10:21:12;3.80;99.90
5210;DHT22;2624;48.048;11.706;2024-01-27T10:26:14;4.00;99.90
5210;DHT22;2624;48.048;11.706;2024-01-27T10:31:17;4.40;99.90
5210;DHT22;2624;48.048;11.706;2024-01-27T10:36:24;4.10;99.90
5210;DHT22;2624;48.048;11.706;2024-01-27T10:41:26;4.40;99.90
5210;DHT22;2624;48.048;11.706;2024-01-27T10:46:30;4.70;99.90
5210;DHT22;2624;48.048;11.706;2024-01-27T10:51:33;4.30;99.90
5210;DHT22;2624;48.048;11.706;2024-01-27T10:56:37;4.90;99.90
5210;DHT22;2624;48.048;11.706;2024-01-27T11:01:41;4.60;99.90
5210;DHT22;2624;48.048;11.706;2024-01-27T11:06:44;5.30;99.90
5210;DHT22;2624;48.048;11.706;2024-01-27T11:11:47;4.90;99.90
5210;DHT22;2624;48.048;11.706;2024-01-27T11:16:56;5.10;99.90
5210;DHT22;2624;48.048;11.706;2024-01-27T11:22:01;5.40;99.90
5210;DHT22;2624;48.048;11.706;2024-01-27T11:27:04;5.40;99.90
5210;DHT22;2624;48.048;11.706;2024-01-27T11:32:08;5.50;99.90
5210;DHT22;2624;48.048;11.706;2024-01-27T11:37:12;5.50;99.90
5210;DHT22;2624;48.048;11.706;2024-01-27T11:42:14;5.40;99.90
5210;DHT22;2624;48.048;11.706;2024-01-27T11:47:18;5.90;99.90
5210;DHT22;2624;48.048;11.706;2024-01-27T11:52:20;5.60;99.90
5210;DHT22;2624;48.048;11.706;2024-01-27T11:57:22;6.30;99.90
5210;DHT22;2624;48.048;11.706;2024-01-27T12:02:25;6.40;99.90
5210;DHT22;2624;48.048;11.706;2024-01-27T12:07:27;6.10;99.90
5210;DHT22;2624;48.048;11.706;2024-01-27T12:12:29;6.30;99.90
5210;DHT22;2624;48.048;11.706;2024-01-27T12:17:32;6.70;99.90
5210;DHT22;2624;48.048;11.706;2024-01-27T12:22:34;7.10;99.90
5210;DHT22;2624;48.048;11.706;2024-01-27T12:27:39;6.60;99.90
5210;DHT22;2624;48.048;11.706;2024-01-27T12:32:42;6.70;99.90
5210;DHT22;2624;48.048;11.706;2024-01-27T12:37:44;6.90;99.90
5210;DHT22;2624;48.048;11.706;2024-01-27T12:42:46;6.10;99.90
5210;DHT22;2624;48.048;11.706;2024-01-27T12:47:49;6.20;99.90
5210;DHT22;2624;48.048;11.706;2024-01-27T12:52:51;6.00;99.90
5210;DHT22;2624;48.048;11.706;2024-01-27T12:57:54;6.20;99.90
5210;DHT22;2624;48.048;11.706;2024-01-27T13:02:59;6.10;99.90
5210;DHT22;2624;48.048;11.706;2024-01-27T13:08:01;6.20;99.90
5210;DHT22;2624;48.048;11.706;2024-01-27T13:13:04;6.20;99.90
5210;DHT22;2624;48.048;11.706;2024-01-27T13:18:07;6.00;99.90
5210;DHT22;2624;48.048;11.706;2024-01-27T13:23:09;5.80;99.90
5210;DHT22;2624;48.048;11.706;2024-01-27T13:28:11;6.00;99.90
5210;DHT22;2624;48.048;11.706;2024-01-27T13:33:15;6.10;99.90
5210;DHT22;2624;48.048;11.706;2024-01-27T13:38:17;6.10;99.90
5210;DHT22;2624;48.048;11.706;2024-01-27T13:43:23;6.00;99.90
5210;DHT22;2624;48.048;11.706;2024-01-27T13:48:27;6.00;99.90
5210;DHT22;2624;48.048;11.706;2024-01-27T13:53:29;6.30;99.90
5210;DHT22;2624;48.048;11.706;2024-01-27T13:58:31;6.70;99.90
5210;DHT22;2624;48.048;11.706;2024-01-27T14:03:34;6.90;99.90
5210;DHT22;2624;48.048;11.706;2024-01-27T14:08:38;6.60;99.90
5210;DHT22;2624;48.048;11.706;2024-01-27T14:13:39;6.40;99.90
5210;DHT22;2624;48.048;11.706;2024-01-27T14:18:45;6.40;99.90
5210;DHT22;2624;48.048;11.706;2024-01-27T14:23:46;6.70;99.90
5210;DHT22;2624;48.048;11.706;2024-01-27T14:28:49;6.70;99.90
5210;DHT22;2624;48.048;11.706;2024-01-27T14:33:52;6.90;99.90
5210;DHT22;2624;48.048;11.706;2024-01-27T14:38:54;6.80;99.90
5210;DHT22;2624;48.048;11.706;2024-01-27T14:43:56;6.70;99.90
5210;DHT22;2624;48.048;11.706;2024-01-27T14:48:59;6.80;99.90
5210;DHT22;2624;48.048;11.706;2024-01-27T14:54:00;6.70;99.90
5210;DHT22;2624;48.048;11.706;2024-01-27T14:59:04;6.40;99.90
5210;DHT22;2624;48.048;11.706;2024-01-27T15:04:09;6.30;99.90
5210;DHT22;2624;48.048;11.706;2024-01-27T15:09:11;6.30;99.90
5210;DHT22;2624;48.048;11.706;2024-01-27T15:14:16;6.10;99.90
5210;DHT22;2624;48.048;11.706;2024-01-27T15:19:19;6.00;99.90
5210;DHT22;2624;48.048;11.706;2024-01-27T15:24:21;6.20;99.90
5210;DHT22;2624;48.048;11.706;2024-01-27T15:29:23;6.20;99.90
5210;DHT22;2624;48.048;11.706;2024-01-27T15:34:26;6.20;99.90
5210;DHT22;2624;48.048;11.706;2024-01-27T15:39:28;6.10;99.90
5210;DHT22;2624;48.048;11.706;2024-01-27T15:44:29;6.00;99.90
5210;DHT22;2624;48.048;11.706;2024-01-27T15:49:33;5.90;99.90
5210;DHT22;2624;48.048;11.706;2024-01-27T15:54:34;5.90;99.90
5210;DHT22;2624;48.048;11.706;2024-01-27T15:59:39;5.90;99.90
5210;DHT22;2624;48.048;11.706;2024-01-27T16:04:42;5.80;99.90
5210;DHT22;2624;48.048;11.706;2024-01-27T16:09:46;5.40;99.90
5210;DHT22;2624;48.048;11.706;2024-01-27T16:14:48;5.70;99.90
5210;DHT22;2624;48.048;11.706;2024-01-27T16:19:51;5.70;99.90
5210;DHT22;2624;48.048;11.706;2024-01-27T16:24:54;5.60;99.90
5210;DHT22;2624;48.048;11.706;2024-01-27T16:29:56;5.40;99.90
5210;DHT22;2624;48.048;11.706;2024-01-27T16:34:59;5.50;99.90
5210;DHT22;2624;48.048;11.706;2024-01-27T16:40:01;4.70;99.90
5210;DHT22;2624;48.048;11.706;2024-01-27T16:45:04;5.30;99.90
5210;DHT22;2624;48.048;11.706;2024-01-27T16:50:09;5.30;99.90
5210;DHT22;2624;48.048;11.706;2024-01-27T16:55:11;5.30;99.90
5210;DHT22;2624;48.048;11.706;2024-01-27T17:00:13;5.30;99.90
5210;DHT22;2624;48.048;11.706;2024-01-27T17:05:16;5.00;99.90
5210;DHT22;2624;48.048;11.706;2024-01-27T17:10:18;5.20;99.90
5210;DHT22;2624;48.048;11.706;2024-01-27T17:15:20;5.10;99.90
5210;DHT22;2624;48.048;11.706;2024-01-27T17:20:23;5.00;99.90
5210;DHT22;2624;48.048;11.706;2024-01-27T17:25:25;3.90;99.90
5210;DHT22;2624;48.048;11.706;2024-01-27T17:30:27;3.70;99.90
5210;DHT22;2624;48.048;11.706;2024-01-27T17:35:30;4.50;99.90
5210;DHT22;2624;48.048;11.706;2024-01-27T17:40:33;4.50;99.90
5210;DHT22;2624;48.048;11.706;2024-01-27T17:45:35;4.70;99.90
5210;DHT22;2624;48.048;11.706;2024-01-27T17:50:38;4.20;99.90
5210;DHT22;2624;48.048;11.706;2024-01-27T17:55:40;4.20;99.90
5210;DHT22;2624;48.048;11.706;2024-01-27T18:00:42;4.50;99.90
5210;DHT22;2624;48.048;11.706;2024-01-27T18:05:45;4.40;99.90
5210;DHT22;2624;48.048;11.706;2024-01-27T18:10:50;3.30;99.90
5210;DHT22;2624;48.048;11.706;2024-01-27T18:15:51;3.10;99.90
5210;DHT22;2624;48.048;11.706;2024-01-27T18:20:55;3.30;99.90
5210;DHT22;2624;48.048;11.706;2024-01-27T18:25:56;3.00;99.90
5210;DHT22;2624;48.048;11.706;2024-01-27T18:30:58;3.60;99.90
5210;DHT22;2624;48.048;11.706;2024-01-27T18:36:02;3.40;99.90
5210;DHT22;2624;48.048;11.706;2024-01-27T18:41:04;3.70;99.90
5210;DHT22;2624;48.048;11.706;2024-01-27T18:46:06;3.50;99.90
5210;DHT22;2624;48.048;11.706;2024-01-27T18:51:10;2.80;99.90
5210;DHT22;2624;48.048;11.706;2024-01-27T18:56:12;3.00;99.90
5210;DHT22;2624;48.048;11.706;2024-01-27T19:01:14;2.70;99.90
5210;DHT22;2624;48.048;11.706;2024-01-27T19:06:17;3.10;99.90
5210;DHT22;2624;48.048;11.706;2024-01-27T19:11:19;2.60;99.90
5210;DHT22;2624;48.048;11.706;2024-01-27T19:16:21;2.70;99.90
5210;DHT22;2624;48.048;11.706;2024-01-27T19:21:24;3.30;99.90
5210;DHT22;2624;48.048;11.706;2024-01-27T19:26:26;3.30;99.90
5210;DHT22;2624;48.048;11.706;2024-01-27T19:31:28;3.20;99.90
5210;DHT22;2624;48.048;11.706;2024-01-27T19:36:33;3.30;99.90
5210;DHT22;2624;48.048;11.706;2024-01-27T19:41:35;3.20;99.90
5210;DHT22;2624;48.048;11.706;2024-01-27T19:46:36;2.50;99.90
5210;DHT22;2624;48.048;11.706;2024-01-27T19:51:43;2.10;99.90
5210;DHT22;2624;48.048;11.706;2024-01-27T19:56:45;2.60;99.90
5210;DHT22;2624;48.048;11.706;2024-01-27T20:01:46;3.00;99.90
5210;DHT22;2624;48.048;11.706;2024-01-27T20:06:49;2.20;99.90
5210;DHT22;2624;48.048;11.706;2024-01-27T20:11:56;2.50;99.90
5210;DHT22;2624;48.048;11.706;2024-01-27T20:16:58;1.60;99.90
5210;DHT22;2624;48.048;11.706;2024-01-27T20:22:01;1.40;99.90
5210;DHT22;2624;48.048;11.706;2024-01-27T20:27:04;1.30;99.90
5210;DHT22;2624;48.048;11.706;2024-01-27T20:32:05;1.20;99.90
5210;DHT22;2624;48.048;11.706;2024-01-27T20:37:09;2.00;99.90
5210;DHT22;2624;48.048;11.706;2024-01-27T20:42:10;2.80;99.90
5210;DHT22;2624;48.048;11.706;2024-01-27T20:47:14;2.90;99.90
5210;DHT22;2624;48.048;11.706;2024-01-27T20:52:17;2.90;99.90
5210;DHT22;2624;48.048;11.706;2024-01-27T20:57:19;2.90;99.90
5210;DHT22;2624;48.048;11.706;2024-01-27T21:02:22;2.80;99.90
5210;DHT22;2624;48.048;11.706;2024-01-27T21:07:25;2.90;99.90
5210;DHT22;2624;48.048;11.706;2024-01-27T21:12:27;2.70;99.90
5210;DHT22;2624;48.048;11.706;2024-01-27T21:17:29;2.30;99.90
5210;DHT22;2624;48.048;11.706;2024-01-27T21:22:32;1.60;99.90
5210;DHT22;2624;48.048;11.706;2024-01-27T21:27:34;1.70;99.90
5210;DHT22;2624;48.048;11.706;2024-01-27T21:32:36;2.00;99.90
5210;DHT22;2624;48.048;11.706;2024-01-27T21:37:39;2.00;99.90
5210;DHT22;2624;48.048;11.706;2024-01-27T21:42:41;2.00;99.90
5210;DHT22;2624;48.048;11.706;2024-01-27T21:47:43;2.00;99.90
5210;DHT22;2624;48.048;11.706;2024-01-27T21:52:46;2.10;99.90
5210;DHT22;2624;48.048;11.706;2024-01-27T21:57:48;1.70;99.90
5210;DHT22;2624;48.048;11.706;2024-01-27T22:02:50;1.70;99.90
5210;DHT22;2624;48.048;11.706;2024-01-27T22:07:54;2.20;99.90
5210;DHT22;2624;48.048;11.706;2024-01-27T22:12:58;2.20;99.90
5210;DHT22;2624;48.048;11.706;2024-01-27T22:18:00;1.70;99.90
5210;DHT22;2624;48.048;11.706;2024-01-27T22:23:03;2.00;99.90
5210;DHT22;2624;48.048;11.706;2024-01-27T22:28:05;1.70;99.90
5210;DHT22;2624;48.048;11.706;2024-01-27T22:33:07;1.60;99.90
5210;DHT22;2624;48.048;11.706;2024-01-27T22:38:12;2.10;99.90
5210;DHT22;2624;48.048;11.706;2024-01-27T22:43:14;2.20;99.90
5210;DHT22;2624;48.048;11.706;2024-01-27T22:48:17;2.10;99.90
5210;DHT22;2624;48.048;11.706;2024-01-27T22:53:20;2.10;99.90
5210;DHT22;2624;48.048;11.706;2024-01-27T22:58:22;2.20;99.90
5210;DHT22;2624;48.048;11.706;2024-01-27T23:03:23;1.30;99.90
5210;DHT22;2624;48.048;11.706;2024-01-27T23:08:27;1.10;99.90
5210;DHT22;2624;48.048;11.706;2024-01-27T23:13:28;1.50;99.90
5210;DHT22;2624;48.048;11.706;2024-01-27T23:18:30;1.70;99.90
5210;DHT22;2624;48.048;11.706;2024-01-27T23:23:33;1.50;99.90
5210;DHT22;2624;48.048;11.706;2024-01-27T23:28:35;1.50;99.90
5210;DHT22;2624;48.048;11.706;2024-01-27T23:33:37;1.40;99.90
5210;DHT22;2624;48.048;11.706;2024-01-27T23:38:40;0.60;99.90
5210;DHT22;2624;48.048;11.706;2024-01-27T23:43:42;0.80;99.90
5210;DHT22;2624;48.048;11.706;2024-01-27T23:48:44;1.20;99.90
5210;DHT22;2624;48.048;11.706;2024-01-27T23:53:47;1.30;99.90
5210;DHT22;2624;48.048;11.706;2024-01-27T23:58:49;1.60;99.90
